Flight Track Log - Related Links

Times and Time Zones

All times are in EDT time to prevent confusion due to time zone crossing. See the UAE202 flight status page for this flight to view local times or setup timezone preferences in your user account.

Time Position Orientation Groundspeed Altitude Reporting Facility
EDT Latitude Longitude Course Direction KTS MPH feet Rate Location/Type
Sat 11:10:42 PM 40.6042 -73.8014 203° Southwest 161 185 1,000  Level Boston Center
Sat 11:11:42 PM 40.5664 -73.8225 130° Southeast 161 185 3,200 1,650 Climbing Boston Center
Sat 11:12:42 PM 40.5294 -73.7642 85° East 148 170 4,300 1,750 Climbing Boston Center
Sat 11:13:42 PM 40.5369 -73.6525 86° East 197 227 6,700 2,500 Climbing Boston Center
Sat 11:14:42 PM 40.5422 -73.5433 88° East 249 287 9,300 2,050 Climbing Boston Center
Sat 11:15:42 PM 40.5456 -73.4258 88° East 288 331 10,800 1,400 Climbing Boston Center
Sat 11:16:42 PM 40.5486 -73.2867 87° East 338 389 12,100 1,900 Climbing Boston Center
Sat 11:17:42 PM 40.5539 -73.1447 87° East 372 428 14,600 2,300 Climbing Boston Center
Sat 11:18:42 PM 40.5589 -73.0083 71° East 398 458 16,700 2,150 Climbing Boston Center
Sat 11:19:42 PM 40.5969 -72.8608 70° East 410 472 18,900 1,900 Climbing Boston Center
Sat 11:20:42 PM 40.6392 -72.7108 71° East 416 479 20,500 1,550 Climbing Boston Center
Sat 11:21:42 PM 40.6789 -72.5550 71° East 430 495 22,000 1,200 Climbing Boston Center
Sat 11:22:42 PM 40.7208 -72.3908 74° East 449 517 22,900 1,250 Climbing Boston Center
Sat 11:23:42 PM 40.7600 -72.2156 72° East 473 544 24,500 1,300 Climbing Boston Center
Sat 11:24:42 PM 40.8033 -72.0369 70° East 487 560 25,500 1,250 Climbing Boston Center
Sat 11:25:42 PM 40.8547 -71.8528 72° East 494 568 27,000 1,450 Climbing Boston Center
Sat 11:26:42 PM 40.8994 -71.6686 75° East 502 578 28,400 1,100 Climbing Boston Center
Sat 11:27:42 PM 40.9333 -71.4978 72° East 508 585 29,200 1,000 Climbing Boston Center
Sat 11:28:42 PM 40.9797 -71.3128 68° East 520 598 30,400 1,200 Climbing Boston Center
Sat 11:29:42 PM 41.0381 -71.1219 43° Northeast 512 589 31,600 1,400 Climbing Boston Center
Sat 11:30:42 PM 41.1469 -70.9875 43° Northeast 507 583 33,200 1,150 Climbing Boston Center
Sat 11:31:42 PM 41.2494 -70.8581 43° Northeast 507 583 33,900 600 Climbing Boston Center
Sat 11:32:42 PM 41.3558 -70.7256 43° Northeast 512 589 34,400 500 Climbing Boston Center
Sat 11:33:42 PM 41.4642 -70.5925 45° Northeast 519 597 34,900 300 Climbing Boston Center
Sat 11:34:42 PM 41.5619 -70.4619 44° Northeast 525 604 35,000 50 Climbing Boston Center
Sat 11:35:42 PM 41.6658 -70.3281 44° Northeast 531 611 35,000  Level Boston Center
Sat 11:36:42 PM 41.7756 -70.1881 44° Northeast 525 604 35,000  Level Boston Center
Sat 11:37:42 PM 41.8853 -70.0447 42° Northeast 522 601 35,000  Level Boston Center
Sat 11:38:42 PM 41.9889 -69.9178 44° Northeast 525 604 35,000  Level Boston Center
Sat 11:39:42 PM 42.0942 -69.7792 42° Northeast 530 610 35,000  Level Boston Center
Sat 11:40:42 PM 42.2056 -69.6456 45° Northeast 530 610 35,000  Level Boston Center
Sat 11:41:42 PM 42.3103 -69.5061 46° Northeast 530 610 35,000  Level Boston Center
Sat 11:42:42 PM 42.4228 -69.3461 44° Northeast 530 610 35,000  Level Boston Center
Sat 11:43:42 PM 42.5275 -69.2083 43° Northeast 520 598 35,000  Level Boston Center
Sat 11:44:42 PM 42.6219 -69.0878 44° Northeast 520 598 35,000  Level Boston Center
Sat 11:45:42 PM 42.7281 -68.9464 45° Northeast 520 598 35,000  Level Boston Center
Sat 11:46:42 PM 42.8342 -68.8014 45° Northeast 520 598 35,000  Level Boston Center
Sat 11:47:42 PM 42.9378 -68.6592 43° Northeast 520 598 35,000  Level Boston Center
Sat 11:48:42 PM 43.0436 -68.5219 44° Northeast 520 598 35,000  Level Boston Center
Sat 11:49:42 PM 43.1514 -68.3783 45° Northeast 520 598 35,000  Level Boston Center
Sat 11:50:42 PM 43.2706 -68.2164 46° Northeast 531 611 35,000  Level Boston Center
Sat 11:51:42 PM 43.3733 -68.0692 44° Northeast 536 617 35,000  Level Boston Center
Sat 11:52:42 PM 43.4825 -67.9239 46° Northeast 536 617 35,000  Level Boston Center
Sat 11:53:42 PM 43.5850 -67.7758 45° Northeast 542 624 35,000  Level Boston Center
Sat 11:54:42 PM 43.6894 -67.6297 45° Northeast 542 624 35,000  Level Boston Center
Sat 11:55:42 PM 43.7958 -67.4831 46° Northeast 542 624 35,000  Level Boston Center
Sat 11:56:42 PM 43.8997 -67.3361 46° Northeast 542 624 35,000  Level Boston Center
Sat 11:57:42 PM 44.0036 -67.1856 46° Northeast 542 624 35,000  Level Boston Center
Sat 11:58:42 PM 44.1053 -67.0378 48° Northeast 542 624 35,000  Level Boston Center
Sat 11:59:42 PM 44.2042 -66.8839 48° Northeast 537 618 35,000  Level Boston Center
Sun 12:00:42 AM 44.3031 -66.7322 49° Northeast 532 612 35,000  Level Boston Center
Sun 12:01:42 AM 44.4017 -66.5744 48° Northeast 527 606 35,000  Level Boston Center
Sun 12:02:42 AM 44.5000 -66.4217 48° Northeast 527 606 35,000  Level Boston Center
Sun 12:03:42 AM 44.5983 -66.2686 48° Northeast 527 606 35,000  Level Boston Center
Sun 12:04:42 AM 44.6964 -66.1153 49° Northeast 527 606 35,000  Level Boston Center
Sun 12:05:51 AM 44.8094 -65.9331 48° Northeast 555 639 35,000  Level Boston Center
Sun 12:06:51 AM 44.9050 -65.7814 48° Northeast 535 616 35,000  Level Boston Center
Sun 12:07:51 AM 45.0044 -65.6261 50° Northeast 529 609 35,000  Level Boston Center
Sun 12:08:51 AM 45.0972 -65.4678 48° Northeast 524 603 35,000  Level Boston Center
Sun 12:09:51 AM 45.1942 -65.3144 49° Northeast 524 603 35,000  Level Boston Center
Sun 12:10:51 AM 45.2889 -65.1581 49° Northeast 524 603 35,000  Level Boston Center
Sun 12:11:51 AM 45.3853 -65.0008 66° East 524 603 35,000  Level Boston Center
Sun 12:12:26 AM 45.4167 -64.9000 44° Northeast 530 610 35,000  Level Gander Center
Sun 12:13:09 AM 45.5000 -64.7833 52° Northeast 530 610 35,000  Level Gander Center
Sun 12:14:11 AM 45.5833 -64.6333 45° Northeast 520 598 35,000  Level Moncton Center
Sun 12:15:11 AM 45.7000 -64.4667 49° Northeast 520 598 35,000  Level Moncton Center
Sun 12:16:11 AM 45.8000 -64.3000 54° Northeast 520 598 35,000  Level Moncton Center
Sun 12:17:11 AM 45.8833 -64.1333 46° Northeast 520 598 35,000  Level Moncton Center
Sun 12:18:11 AM 45.9833 -63.9833 54° Northeast 520 598 35,000  Level Moncton Center
Sun 12:19:11 AM 46.0667 -63.8167 51° Northeast 520 598 35,000  Level Moncton Center
Sun 12:20:11 AM 46.1500 -63.6667 54° Northeast 520 598 35,000  Level Moncton Center
Sun 12:21:11 AM 46.2333 -63.5000 46° Northeast 520 598 35,000  Level Moncton Center
Sun 12:22:11 AM 46.3333 -63.3500 51° Northeast 520 598 35,000  Level Moncton Center
Sun 12:24:11 AM 46.5167 -63.0167 52° Northeast 520 598 35,000  Level Moncton Center
Sun 12:25:11 AM 46.6167 -62.8333 48° Northeast 520 598 35,000  Level Moncton Center
Sun 12:26:09 AM 46.7000 -62.7000 49° Northeast 520 598 35,000  Level Gander Center
Sun 12:27:09 AM 46.8000 -62.5333 49° Northeast 520 598 35,000  Level Gander Center
Sun 12:28:11 AM 46.9000 -62.3667 51° Northeast 520 598 35,000  Level Moncton Center
Sun 12:29:11 AM 47.0000 -62.1833 47° Northeast 530 610 35,000  Level Moncton Center
Sun 12:30:09 AM 47.0833 -62.0500 58° Northeast 530 610 35,000  Level Gander Center
Sun 12:31:09 AM 47.1667 -61.8500 51° Northeast 520 598 35,000  Level Gander Center
Sun 12:32:09 AM 47.2500 -61.7000 48° Northeast 530 610 35,000  Level Gander Center
Sun 12:33:09 AM 47.3500 -61.5333 56° Northeast 530 610 35,000  Level Gander Center
Sun 12:34:09 AM 47.4333 -61.3500 48° Northeast 530 610 35,000  Level Gander Center
Sun 12:35:09 AM 47.5333 -61.1833 56° Northeast 530 610 35,000  Level Gander Center
Sun 12:36:11 AM 47.6167 -61.0000 48° Northeast 530 610 35,000  Level Moncton Center
Sun 12:37:09 AM 47.7167 -60.8333 53° Northeast 530 610 35,000  Level Gander Center
Sun 12:38:09 AM 47.8000 -60.6667 51° Northeast 540 621 35,000  Level Gander Center
Sun 12:39:11 AM 47.9000 -60.4833 53° Northeast 530 610 35,000  Level Moncton Center
Sun 12:40:09 AM 47.9833 -60.3167 56° Northeast 530 610 35,000  Level Gander Center
Sun 12:41:09 AM 48.0667 -60.1333 51° Northeast 530 610 35,000  Level Gander Center
Sun 12:42:11 AM 48.1667 -59.9500 56° Northeast 530 610 35,000  Level Moncton Center
Sun 12:43:11 AM 48.2500 -59.7667 53° Northeast 530 610 35,000  Level Moncton Center
Sun 12:44:09 AM 48.3333 -59.6000 51° Northeast 540 621 35,000  Level Gander Center
Sun 12:45:09 AM 48.4333 -59.4167 55° Northeast 540 621 35,000  Level Gander Center
Sun 12:46:09 AM 48.5167 -59.2333 53° Northeast 540 621 35,000  Level Gander Center
Sun 12:47:09 AM 48.6000 -59.0667 55° Northeast 540 621 35,000  Level Gander Center
Sun 12:48:09 AM 48.6833 -58.8833 50° Northeast 540 621 35,000  Level Gander Center
Sun 12:49:09 AM 48.7833 -58.7000 55° Northeast 540 621 35,000  Level Gander Center
Sun 12:50:09 AM 48.8667 -58.5167 55° Northeast 550 633 35,000  Level Gander Center
Sun 12:51:11 AM 48.9667 -58.3000 61° Northeast 540 621 35,000  Level Moncton Center
Sun 12:52:09 AM 49.0333 -58.1167 50° Northeast 540 621 35,000  Level Gander Center
Sun 12:53:09 AM 49.1333 -57.9333 55° Northeast 540 621 35,000  Level Gander Center
Sun 12:54:09 AM 49.2167 -57.7500 59° Northeast 540 621 35,000  Level Gander Center
Sun 12:55:09 AM 49.3000 -57.5333 55° Northeast 540 621 35,000  Level Gander Center
Sun 12:56:09 AM 49.3833 -57.3500 61° Northeast 540 621 35,000  Level Gander Center
Sun 12:57:09 AM 49.4500 -57.1667 59° Northeast 540 621 35,000 300 Level Gander Center
Sun 12:58:09 AM 49.5333 -56.9500 55° Northeast 540 621 35,600 500 Climbing Gander Center
Sun 12:59:09 AM 49.6167 -56.7667 61° Northeast 540 621 36,000 200 Climbing Gander Center
Sun 01:00:09 AM 49.6833 -56.5833 54° Northeast 540 621 36,000  Level Gander Center
Sun 01:01:09 AM 49.7833 -56.3667 69° East 540 621 36,000  Level Gander Center
Sun 01:02:09 AM 49.8333 -56.1667 54° Northeast 540 621 36,000  Level Gander Center
Sun 01:03:09 AM 49.9333 -55.9500 60° Northeast 540 621 36,000  Level Gander Center
Sun 01:04:09 AM 50.0000 -55.7667 57° Northeast 540 621 36,000  Level Gander Center
Sun 01:05:09 AM 50.0833 -55.5667 64° Northeast 550 633 36,000  Level Gander Center
Sun 01:06:09 AM 50.1500 -55.3500 60° Northeast 550 633 36,000  Level Gander Center
Sun 01:07:09 AM 50.2167 -55.1667 56° Northeast 540 621 36,000  Level Gander Center
Sun 01:08:09 AM 50.3167 -54.9333 60° Northeast 540 621 36,000  Level Gander Center
Sun 01:09:09 AM 50.3833 -54.7500 64° Northeast 550 633 36,000  Level Gander Center
Sun 01:10:09 AM 50.4500 -54.5333 59° Northeast 550 633 36,000  Level Gander Center
Sun 01:11:11 AM 50.5333 -54.3167 61° Northeast 560 644 36,000  Level Moncton Center
Sun 01:12:11 AM 50.6167 -54.0833 62° Northeast 550 633 36,000  Level Moncton Center
Sun 01:13:11 AM 50.6833 -53.8833 57° Northeast 550 633 36,000  Level Moncton Center
Sun 01:14:11 AM 50.7667 -53.6833 60° Northeast 550 633 36,000  Level Moncton Center
Sun 01:15:11 AM 50.8500 -53.4500 62° Northeast 550 633 36,000  Level Moncton Center
Sun 01:16:11 AM 50.9167 -53.2500 66° East 550 633 36,000  Level Moncton Center
Sun 01:17:11 AM 50.9833 -53.0167 62° Northeast 550 633 36,000  Level Moncton Center
Sun 01:18:11 AM 51.0500 -52.8167 58° Northeast 550 633 36,000  Level Moncton Center
Sun 01:19:11 AM 51.1333 -52.6000 65° Northeast 560 644 36,000  Level Moncton Center
Sun 01:20:11 AM 51.2000 -52.3667 68° East 550 633 36,000  Level Moncton Center
Sun 01:21:11 AM 51.2500 -52.1667 58° Northeast 550 633 36,000  Level Moncton Center
Sun 01:22:11 AM 51.3333 -51.9500 65° Northeast 550 633 36,000  Level Moncton Center
Sun 01:23:11 AM 51.4000 -51.7167 65° Northeast 560 644 36,000  Level Moncton Center
Sun 01:24:11 AM 51.4667 -51.4833 51° Northeast 560 644 36,000  Level Moncton Center
Sun 01:25:09 AM 51.5500 -51.3167 71° East 550 633 36,000  Level Gander Center
Sun 01:26:09 AM 51.6000 -51.0833 61° Northeast 550 633 36,000  Level Gander Center
Sun 01:28:09 AM 51.7500 -50.6500 58° Northeast 550 633 36,000  Level Gander Center
Sun 01:29:09 AM 51.8333 -50.4333 71° East 550 633 36,000  Level Gander Center
Sun 01:30:09 AM 51.8833 -50.2000 76° East 550 633 36,000  Level Gander Center
Sun 02:20:15 AM 53.0414 -38.8583 87° East  Level FlightAware Approximate
Sun 02:21:15 AM 53.0487 -38.6255 87° East  Level FlightAware Approximate
Sun 02:22:15 AM 53.0556 -38.3926 87° East  Level FlightAware Approximate
Sun 02:23:15 AM 53.0620 -38.1596 87° East  Level FlightAware Approximate
Sun 02:24:15 AM 53.0680 -37.9266 88° East  Level FlightAware Approximate
Sun 02:25:15 AM 53.0735 -37.6935 88° East  Level FlightAware Approximate
Sun 02:26:15 AM 53.0786 -37.4603 88° East  Level FlightAware Approximate
Sun 02:27:15 AM 53.0832 -37.2271 88° East  Level FlightAware Approximate
Sun 02:28:15 AM 53.0874 -36.9939 88° East  Level FlightAware Approximate
Sun 02:29:15 AM 53.0911 -36.7606 89° East  Level FlightAware Approximate
Sun 02:30:15 AM 53.0943 -36.5273 89° East  Level FlightAware Approximate
Sun 02:31:15 AM 53.0971 -36.2939 89° East  Level FlightAware Approximate
Sun 02:32:15 AM 53.0994 -36.0605 89° East  Level FlightAware Approximate
Sun 02:33:15 AM 53.1013 -35.8271 89° East  Level FlightAware Approximate
Sun 02:34:15 AM 53.1027 -35.5937 90° East  Level FlightAware Approximate
Sun 02:35:15 AM 53.1037 -35.3602 90° East  Level FlightAware Approximate
Sun 02:36:15 AM 53.1042 -35.1268 92° East  Level FlightAware Approximate
Sun 02:37:15 AM 53.1001 -34.8936 91° East  Level FlightAware Approximate
Sun 02:38:15 AM 53.0975 -34.6602 91° East  Level FlightAware Approximate
Sun 02:39:15 AM 53.0944 -34.4268 91° East  Level FlightAware Approximate
Sun 02:40:15 AM 53.0910 -34.1935 92° East  Level FlightAware Approximate
Sun 02:41:15 AM 53.0870 -33.9602 92° East  Level FlightAware Approximate
Sun 02:42:15 AM 53.0826 -33.7270 92° East  Level FlightAware Approximate
Sun 02:43:15 AM 53.0777 -33.4938 92° East  Level FlightAware Approximate
Sun 02:44:15 AM 53.0724 -33.2607 92° East  Level FlightAware Approximate
Sun 02:45:15 AM 53.0666 -33.0276 92° East  Level FlightAware Approximate
Sun 02:46:15 AM 53.0604 -32.7946 93° East  Level FlightAware Approximate
Sun 02:47:15 AM 53.0537 -32.5617 93° East  Level FlightAware Approximate
Sun 02:48:15 AM 53.0466 -32.3288 93° East  Level FlightAware Approximate
Sun 02:49:15 AM 53.0390 -32.0961 93° East  Level FlightAware Approximate
Sun 02:50:15 AM 53.0309 -31.8634 93° East  Level FlightAware Approximate
Sun 02:51:15 AM 53.0224 -31.6308 94° East  Level FlightAware Approximate
Sun 02:52:15 AM 53.0135 -31.3983 94° East  Level FlightAware Approximate
Sun 02:53:15 AM 53.0041 -31.1658 94° East  Level FlightAware Approximate
Sun 02:54:15 AM 52.9942 -30.9335 94° East  Level FlightAware Approximate
Sun 02:55:15 AM 52.9839 -30.7013 94° East  Level FlightAware Approximate
Sun 02:56:15 AM 52.9731 -30.4693 95° East  Level FlightAware Approximate
Sun 02:57:15 AM 52.9619 -30.2373 95° East  Level FlightAware Approximate
Sun 02:58:15 AM 52.9502 -30.0054 89° East  Level FlightAware Approximate
Sun 02:59:15 AM 52.9529 -29.7729 89° East  Level FlightAware Approximate
Sun 03:00:15 AM 52.9552 -29.5403 89° East  Level FlightAware Approximate
Sun 03:01:15 AM 52.9569 -29.3076 89° East  Level FlightAware Approximate
Sun 03:02:15 AM 52.9582 -29.0750 90° East  Level FlightAware Approximate
Sun 03:03:15 AM 52.9591 -28.8423 90° East  Level FlightAware Approximate
Sun 03:04:15 AM 52.9595 -28.6096 90° East  Level FlightAware Approximate
Sun 03:05:15 AM 52.9595 -28.3770 90° East  Level FlightAware Approximate
Sun 03:06:15 AM 52.9590 -28.1443 90° East  Level FlightAware Approximate
Sun 03:07:15 AM 52.9581 -27.9116 90° East  Level FlightAware Approximate
Sun 03:08:15 AM 52.9567 -27.6790 91° East  Level FlightAware Approximate
Sun 03:09:15 AM 52.9548 -27.4464 91° East  Level FlightAware Approximate
Sun 03:10:15 AM 52.9525 -27.2138 91° East  Level FlightAware Approximate
Sun 03:11:15 AM 52.9497 -26.9812 91° East  Level FlightAware Approximate
Sun 03:12:15 AM 52.9465 -26.7486 91° East  Level FlightAware Approximate
Sun 03:13:15 AM 52.9428 -26.5161 92° East  Level FlightAware Approximate
Sun 03:14:15 AM 52.9387 -26.2836 92° East  Level FlightAware Approximate
Sun 03:15:15 AM 52.9341 -26.0512 92° East  Level FlightAware Approximate
Sun 03:16:15 AM 52.9291 -25.8189 92° East  Level FlightAware Approximate
Sun 03:17:15 AM 52.9236 -25.5865 92° East  Level FlightAware Approximate
Sun 03:18:15 AM 52.9177 -25.3543 93° East  Level FlightAware Approximate
Sun 03:19:15 AM 52.9113 -25.1221 93° East  Level FlightAware Approximate
Sun 03:20:15 AM 52.9045 -24.8900 93° East  Level FlightAware Approximate
Sun 03:21:15 AM 52.8972 -24.6580 93° East  Level FlightAware Approximate
Sun 03:22:15 AM 52.8894 -24.4260 93° East  Level FlightAware Approximate
Sun 03:23:15 AM 52.8812 -24.1941 93° East  Level FlightAware Approximate
Sun 03:24:15 AM 52.8726 -23.9624 94° East  Level FlightAware Approximate
Sun 03:25:15 AM 52.8635 -23.7307 94° East  Level FlightAware Approximate
Sun 03:26:15 AM 52.8539 -23.4991 94° East  Level FlightAware Approximate
Sun 03:27:15 AM 52.8439 -23.2676 94° East  Level FlightAware Approximate
Sun 03:28:15 AM 52.8335 -23.0362 94° East  Level FlightAware Approximate
Sun 03:29:15 AM 52.8226 -22.8049 95° East  Level FlightAware Approximate
Sun 03:30:15 AM 52.8112 -22.5738 88° East  Level FlightAware Approximate
Sun 03:31:15 AM 52.8154 -22.3420 88° East  Level FlightAware Approximate
Sun 03:32:15 AM 52.8192 -22.1102 89° East  Level FlightAware Approximate
Sun 03:33:15 AM 52.8226 -21.8783 89° East  Level FlightAware Approximate
Sun 03:34:15 AM 52.8254 -21.6465 89° East  Level FlightAware Approximate
Sun 03:35:15 AM 52.8278 -21.4145 89° East  Level FlightAware Approximate
Sun 03:36:15 AM 52.8298 -21.1826 89° East  Level FlightAware Approximate
Sun 03:37:15 AM 52.8313 -20.9506 89° East  Level FlightAware Approximate
Sun 03:38:15 AM 52.8324 -20.7186 90° East  Level FlightAware Approximate
Sun 03:39:15 AM 52.8330 -20.4867 90° East  Level FlightAware Approximate
Sun 03:40:15 AM 52.8332 -20.2547 90° East  Level FlightAware Approximate
Sun 03:41:15 AM 52.8329 -20.0227 90° East  Level FlightAware Approximate
Sun 03:42:15 AM 52.8321 -19.7907 90° East  Level FlightAware Approximate
Sun 03:43:15 AM 52.8309 -19.5587 91° East  Level FlightAware Approximate
Sun 03:44:15 AM 52.8293 -19.3267 91° East  Level FlightAware Approximate
Sun 03:45:15 AM 52.8272 -19.0948 91° East  Level FlightAware Approximate
Sun 03:46:15 AM 52.8246 -18.8629 91° East  Level FlightAware Approximate
Sun 03:47:15 AM 52.8216 -18.6310 91° East  Level FlightAware Approximate
Sun 03:48:15 AM 52.8182 -18.3992 92° East  Level FlightAware Approximate
Sun 03:49:15 AM 52.8143 -18.1674 92° East  Level FlightAware Approximate
Sun 03:50:15 AM 52.8099 -17.9356 92° East  Level FlightAware Approximate
Sun 03:51:15 AM 52.8051 -17.7039 92° East  Level FlightAware Approximate
Sun 03:52:15 AM 52.7998 -17.4722 92° East  Level FlightAware Approximate
Sun 03:53:15 AM 52.7941 -17.2406 92° East  Level FlightAware Approximate
Sun 03:54:15 AM 52.7880 -17.0090 93° East  Level FlightAware Approximate
Sun 03:55:15 AM 52.7813 -16.7776 93° East  Level FlightAware Approximate
Sun 03:56:15 AM 52.7743 -16.5462 93° East  Level FlightAware Approximate
Sun 03:57:15 AM 52.7668 -16.3148 93° East  Level FlightAware Approximate
Sun 03:58:15 AM 52.7588 -16.0836 93° East  Level FlightAware Approximate
Sun 03:59:15 AM 52.7504 -15.8524 94° East  Level FlightAware Approximate
Sun 04:00:15 AM 52.7415 -15.6214 94° East  Level FlightAware Approximate
Sun 04:01:15 AM 52.7322 -15.3904 92° East  Level FlightAware Approximate
Sun 04:02:15 AM 52.7272 -15.1591 92° East  Level FlightAware Approximate
Sun 04:03:15 AM 52.7218 -14.9279 92° East  Level FlightAware Approximate
Sun 04:04:15 AM 52.7160 -14.6967 92° East  Level FlightAware Approximate
Sun 04:05:15 AM 52.7096 -14.4656 93° East  Level FlightAware Approximate
Sun 04:06:15 AM 52.7029 -14.2345 93° East  Level FlightAware Approximate
Sun 04:07:15 AM 52.6956 -14.0035 93° East  Level FlightAware Approximate
Sun 04:08:15 AM 52.6880 -13.7727 93° East  Level FlightAware Approximate
Sun 04:09:15 AM 52.6799 -13.5419 93° East  Level FlightAware Approximate
Sun 04:10:15 AM 52.6713 -13.3111 94° East  Level FlightAware Approximate
Sun 04:11:15 AM 52.6623 -13.0805 94° East  Level FlightAware Approximate
Sun 04:12:15 AM 52.6528 -12.8500 94° East  Level FlightAware Approximate
Sun 04:13:15 AM 52.6429 -12.6195 94° East  Level FlightAware Approximate
Sun 04:14:15 AM 52.6326 -12.3892 94° East  Level FlightAware Approximate
Sun 04:15:15 AM 52.6218 -12.1590 95° East  Level FlightAware Approximate
Sun 04:16:15 AM 52.6105 -11.9289 95° East  Level FlightAware Approximate
Sun 04:17:15 AM 52.5988 -11.6989 95° East  Level FlightAware Approximate
Sun 04:18:15 AM 52.5867 -11.4691 95° East  Level FlightAware Approximate
Sun 04:19:15 AM 52.5741 -11.2394 95° East  Level FlightAware Approximate
Sun 04:20:15 AM 52.5611 -11.0098 95° East  Level FlightAware Approximate
Sun 04:21:15 AM 52.5476 -10.7803 96° East  Level FlightAware Approximate
Sun 04:22:15 AM 52.5337 -10.5510 96° East  Level FlightAware Approximate
Sun 04:23:15 AM 52.5193 -10.3219 96° East  Level FlightAware Approximate
Sun 04:24:15 AM 52.5045 -10.0928 96° East  Level FlightAware Approximate
Sun 04:25:15 AM 52.4893 -9.8640 96° East  Level FlightAware Approximate
Sun 04:26:15 AM 52.4736 -9.6353 97° East  Level FlightAware Approximate
Sun 04:27:15 AM 52.4575 -9.4068 97° East  Level FlightAware Approximate
Sun 04:28:15 AM 52.4409 -9.1784 97° East  Level FlightAware Approximate
Sun 04:29:15 AM 52.4239 -8.9503 97° East  Level FlightAware Approximate
Sun 04:30:15 AM 52.4065 -8.7223 97° East  Level FlightAware Approximate
Sun 04:31:15 AM 52.3886 -8.4944 97° East  Level FlightAware Approximate
Sun 04:32:15 AM 52.3703 -8.2668 98° East  Level FlightAware Approximate
Sun 04:33:15 AM 52.3516 -8.0394 98° East  Level FlightAware Approximate
Sun 04:34:15 AM 52.3324 -7.8121 98° East  Level FlightAware Approximate
Sun 04:35:15 AM 52.3127 -7.5851 98° East  Level FlightAware Approximate
Sun 04:36:15 AM 52.2927 -7.3582 98° East  Level FlightAware Approximate
Sun 04:37:15 AM 52.2722 -7.1316 98° East  Level FlightAware Approximate
Sun 04:38:15 AM 52.2513 -6.9052 99° East  Level FlightAware Approximate
Sun 04:39:15 AM 52.2299 -6.6790 99° East  Level FlightAware Approximate
Sun 04:40:15 AM 52.2081 -6.4530 99° East  Level FlightAware Approximate
Sun 04:41:15 AM 52.1859 -6.2272 98° East  Level FlightAware Approximate
Sun 04:42:15 AM 52.1661 -6.0009 98° East  Level FlightAware Approximate
Sun 04:43:15 AM 52.1459 -5.7749 98° East  Level FlightAware Approximate
Sun 04:44:15 AM 52.1252 -5.5490 99° East  Level FlightAware Approximate
Sun 04:45:15 AM 52.1041 -5.3234 99° East  Level FlightAware Approximate
Sun 04:46:15 AM 52.0826 -5.0980 99° East  Level FlightAware Approximate
Sun 04:47:15 AM 52.0606 -4.8728 99° East  Level FlightAware Approximate
Sun 04:48:15 AM 52.0382 -4.6478 99° East  Level FlightAware Approximate
Sun 04:49:15 AM 52.0154 -4.4230 99° East  Level FlightAware Approximate
Sun 04:50:15 AM 51.9922 -4.1985 100° East  Level FlightAware Approximate
Sun 04:51:15 AM 51.9686 -3.9743 99° East  Level FlightAware Approximate
Sun 04:52:15 AM 51.9455 -3.7499 100° East  Level FlightAware Approximate
Sun 04:53:15 AM 51.9220 -3.5258 100° East  Level FlightAware Approximate
Sun 04:54:15 AM 51.8981 -3.3020 100° East  Level FlightAware Approximate
Sun 04:55:15 AM 51.8737 -3.0783 100° East  Level FlightAware Approximate
Sun 04:56:15 AM 51.8490 -2.8550 99° East  Level FlightAware Approximate
Sun 04:57:15 AM 51.8267 -2.6310 99° East  Level FlightAware Approximate
Sun 04:58:15 AM 51.8039 -2.4073 99° East  Level FlightAware Approximate
Sun 04:59:15 AM 51.7807 -2.1838 100° East  Level FlightAware Approximate
Sun 05:00:15 AM 51.7571 -1.9606 100° East  Level FlightAware Approximate
Sun 05:01:15 AM 51.7331 -1.7376 100° East  Level FlightAware Approximate
Sun 05:02:15 AM 51.7087 -1.5148 100° East  Level FlightAware Approximate
Sun 05:03:15 AM 51.6838 -1.2923 100° East  Level FlightAware Approximate
Sun 05:04:15 AM 51.6585 -1.0700 100° East  Level FlightAware Approximate
Sun 05:05:15 AM 51.6328 -0.8480 101° East  Level FlightAware Approximate
Sun 05:06:15 AM 51.6067 -0.6262 101° East  Level FlightAware Approximate
Sun 05:07:15 AM 51.5801 -0.4047 101° East  Level FlightAware Approximate
Sun 05:08:15 AM 51.5532 -0.1834 141° Southeast  Level FlightAware Approximate
Sun 05:09:15 AM 51.4577 -0.0573 100° East  Level FlightAware Approximate
Sun 05:10:15 AM 51.4321 0.1638 101° East  Level FlightAware Approximate
Sun 05:11:15 AM 51.4062 0.3846 101° East  Level FlightAware Approximate
Sun 05:12:15 AM 51.3798 0.6052 101° East  Level FlightAware Approximate
Sun 05:13:15 AM 51.3530 0.8256 103° East  Level FlightAware Approximate
Sun 05:14:15 AM 51.3216 1.0441 101° East  Level FlightAware Approximate
Sun 05:15:15 AM 51.2941 1.2640 101° East  Level FlightAware Approximate
Sun 05:16:15 AM 51.2662 1.4836 102° East  Level FlightAware Approximate
Sun 05:17:15 AM 51.2379 1.7029 102° East  Level FlightAware Approximate
Sun 05:18:15 AM 51.2092 1.9219 102° East  Level FlightAware Approximate
Sun 05:19:15 AM 51.1791 2.1403 102° East  Level FlightAware Approximate
Sun 05:20:15 AM 51.1496 2.3589 102° East  Level FlightAware Approximate
Sun 05:21:15 AM 51.1198 2.5771 102° East  Level FlightAware Approximate
Sun 05:22:15 AM 51.0895 2.7950 103° East  Level FlightAware Approximate
Sun 05:23:15 AM 51.0588 3.0127 103° East  Level FlightAware Approximate
Sun 05:24:15 AM 51.0277 3.2301 103° East  Level FlightAware Approximate
Sun 05:25:15 AM 50.9963 3.4471 103° East  Level FlightAware Approximate
Sun 05:26:15 AM 50.9644 3.6639 103° East  Level FlightAware Approximate
Sun 05:27:15 AM 50.9321 3.8804 103° East  Level FlightAware Approximate
Sun 05:28:15 AM 50.8994 4.0966 104° East  Level FlightAware Approximate
Sun 05:29:15 AM 50.8663 4.3124 104° East  Level FlightAware Approximate
Sun 05:30:15 AM 50.8329 4.5280 104° East  Level FlightAware Approximate
Sun 05:31:15 AM 50.7990 4.7432 104° East  Level FlightAware Approximate
Sun 05:32:15 AM 50.7647 4.9582 104° East  Level FlightAware Approximate
Sun 05:33:15 AM 50.7300 5.1728 104° East  Level FlightAware Approximate
Sun 05:34:15 AM 50.6950 5.3871 105° East  Level FlightAware Approximate
Sun 05:35:15 AM 50.6595 5.6011 105° East  Level FlightAware Approximate
Sun 05:36:15 AM 50.6237 5.8147 105° East  Level FlightAware Approximate
Sun 05:37:15 AM 50.5875 6.0281 105° East  Level FlightAware Approximate
Sun 05:38:15 AM 50.5508 6.2411 105° East  Level FlightAware Approximate
Sun 05:39:15 AM 50.5138 6.4537 105° East  Level FlightAware Approximate
Sun 05:40:15 AM 50.4764 6.6661 106° East  Level FlightAware Approximate
Sun 05:41:15 AM 50.4386 6.8781 106° East  Level FlightAware Approximate
Sun 05:42:15 AM 50.4005 7.0897 106° East  Level FlightAware Approximate
Sun 05:43:15 AM 50.3619 7.3010 106° East  Level FlightAware Approximate
Sun 05:44:15 AM 50.3230 7.5120 106° East  Level FlightAware Approximate
Sun 05:45:15 AM 50.2837 7.7226 106° East  Level FlightAware Approximate
Sun 05:46:15 AM 50.2440 7.9329 107° East  Level FlightAware Approximate
Sun 05:47:15 AM 50.2033 8.1425 107° East  Level FlightAware Approximate
Sun 05:48:15 AM 50.1629 8.3521 107° East  Level FlightAware Approximate
Sun 05:49:15 AM 50.1221 8.5613 107° East  Level FlightAware Approximate
Sun 05:50:15 AM 50.0809 8.7702 107° East  Level FlightAware Approximate
Sun 05:51:15 AM 50.0393 8.9786 107° East  Level FlightAware Approximate
Sun 05:52:15 AM 49.9974 9.1868 107° East  Level FlightAware Approximate
Sun 05:53:15 AM 49.9551 9.3945 108° East  Level FlightAware Approximate
Sun 05:54:15 AM 49.9124 9.6019 108° East  Level FlightAware Approximate
Sun 05:55:15 AM 49.8693 9.8090 108° East  Level FlightAware Approximate
Sun 05:56:15 AM 49.8259 10.0156 108° East  Level FlightAware Approximate
Sun 05:57:15 AM 49.7821 10.2219 108° East  Level FlightAware Approximate
Sun 05:58:15 AM 49.7380 10.4278 108° East  Level FlightAware Approximate
Sun 05:59:15 AM 49.6935 10.6334 109° East  Level FlightAware Approximate
Sun 06:00:15 AM 49.6486 10.8385 106° East  Level FlightAware Approximate
Sun 06:01:15 AM 49.6106 11.0447 109° East  Level FlightAware Approximate
Sun 06:02:15 AM 49.5649 11.2491 109° East  Level FlightAware Approximate
Sun 06:03:15 AM 49.5190 11.4532 109° East  Level FlightAware Approximate
Sun 06:04:15 AM 49.4726 11.6568 109° East  Level FlightAware Approximate
Sun 06:05:15 AM 49.4260 11.8601 110° East  Level FlightAware Approximate
Sun 06:06:15 AM 49.3789 12.0630 110° East  Level FlightAware Approximate
Sun 06:07:15 AM 49.3315 12.2655 110° East  Level FlightAware Approximate
Sun 06:08:15 AM 49.2838 12.4676 110° East  Level FlightAware Approximate
Sun 06:09:15 AM 49.2357 12.6693 110° East  Level FlightAware Approximate
Sun 06:10:15 AM 49.1872 12.8706 110° East  Level FlightAware Approximate
Sun 06:11:15 AM 49.1384 13.0716 110° East  Level FlightAware Approximate
Sun 06:12:15 AM 49.0893 13.2721 111° Southeast  Level FlightAware Approximate
Sun 06:13:15 AM 49.0398 13.4722 111° Southeast  Level FlightAware Approximate
Sun 06:14:15 AM 48.9900 13.6719 111° Southeast  Level FlightAware Approximate
Sun 06:15:15 AM 48.9398 13.8713 111° Southeast  Level FlightAware Approximate
Sun 06:16:15 AM 48.8893 14.0702 111° Southeast  Level FlightAware Approximate
Sun 06:17:15 AM 48.8384 14.2687 111° Southeast  Level FlightAware Approximate
Sun 06:18:15 AM 48.7872 14.4668 112° Southeast  Level FlightAware Approximate
Sun 06:19:15 AM 48.7356 14.6645 112° Southeast  Level FlightAware Approximate
Sun 06:20:15 AM 48.6838 14.8619 112° Southeast  Level FlightAware Approximate
Sun 06:21:15 AM 48.6315 15.0588 112° Southeast  Level FlightAware Approximate
Sun 06:22:15 AM 48.5790 15.2552 112° Southeast  Level FlightAware Approximate
Sun 06:23:15 AM 48.5261 15.4513 112° Southeast  Level FlightAware Approximate
Sun 06:24:15 AM 48.4729 15.6470 112° Southeast  Level FlightAware Approximate
Sun 06:25:15 AM 48.4193 15.8423 113° Southeast  Level FlightAware Approximate
Sun 06:26:15 AM 48.3654 16.0371 113° Southeast  Level FlightAware Approximate
Sun 06:27:15 AM 48.3112 16.2315 113° Southeast  Level FlightAware Approximate
Sun 06:28:15 AM 48.2567 16.4256 113° Southeast  Level FlightAware Approximate
Sun 06:29:15 AM 48.2018 16.6192 113° Southeast  Level FlightAware Approximate
Sun 06:30:15 AM 48.1466 16.8124 113° Southeast  Level FlightAware Approximate
Sun 06:31:15 AM 48.0911 17.0051 113° Southeast  Level FlightAware Approximate
Sun 06:32:15 AM 48.0353 17.1975 114° Southeast  Level FlightAware Approximate
Sun 06:33:15 AM 47.9792 17.3894 114° Southeast  Level FlightAware Approximate
Sun 06:34:15 AM 47.9227 17.5810 114° Southeast  Level FlightAware Approximate
Sun 06:35:15 AM 47.8659 17.7721 114° Southeast  Level FlightAware Approximate
Sun 06:36:15 AM 47.8088 17.9627 114° Southeast  Level FlightAware Approximate
Sun 06:37:15 AM 47.7514 18.1530 114° Southeast  Level FlightAware Approximate
Sun 06:38:15 AM 47.6936 18.3428 114° Southeast  Level FlightAware Approximate
Sun 06:39:15 AM 47.6356 18.5323 115° Southeast  Level FlightAware Approximate
Sun 06:40:15 AM 47.5772 18.7213 115° Southeast  Level FlightAware Approximate
Sun 06:41:15 AM 47.5186 18.9098 115° Southeast  Level FlightAware Approximate
Sun 06:42:15 AM 47.4596 19.0980 115° Southeast  Level FlightAware Approximate
Sun 06:43:15 AM 47.4003 19.2857 115° Southeast  Level FlightAware Approximate
Sun 06:44:15 AM 47.3407 19.4730 115° Southeast  Level FlightAware Approximate
Sun 06:45:15 AM 47.2808 19.6599 115° Southeast  Level FlightAware Approximate
Sun 06:46:15 AM 47.2206 19.8464 116° Southeast  Level FlightAware Approximate
Sun 06:47:15 AM 47.1601 20.0324 116° Southeast  Level FlightAware Approximate
Sun 06:48:15 AM 47.0993 20.2181 116° Southeast  Level FlightAware Approximate
Sun 06:49:15 AM 47.0382 20.4032 116° Southeast  Level FlightAware Approximate
Sun 06:50:15 AM 46.9768 20.5880 116° Southeast  Level FlightAware Approximate
Sun 06:51:15 AM 46.9151 20.7724 116° Southeast  Level FlightAware Approximate
Sun 06:52:15 AM 46.8532 20.9563 116° Southeast  Level FlightAware Approximate
Sun 06:53:15 AM 46.7909 21.1398 116° Southeast  Level FlightAware Approximate
Sun 06:54:15 AM 46.7283 21.3228 117° Southeast  Level FlightAware Approximate
Sun 06:55:15 AM 46.6655 21.5055 117° Southeast  Level FlightAware Approximate
Sun 06:56:15 AM 46.6023 21.6877 117° Southeast  Level FlightAware Approximate
Sun 06:57:15 AM 46.5389 21.8695 117° Southeast  Level FlightAware Approximate
Sun 06:58:15 AM 46.4751 22.0508 117° Southeast  Level FlightAware Approximate
Sun 06:59:15 AM 46.4111 22.2318 117° Southeast  Level FlightAware Approximate
Sun 07:00:15 AM 46.3468 22.4123 117° Southeast  Level FlightAware Approximate
Sun 07:01:15 AM 46.2822 22.5924 118° Southeast  Level FlightAware Approximate
Sun 07:02:15 AM 46.2174 22.7721 118° Southeast  Level FlightAware Approximate
Sun 07:03:15 AM 46.1522 22.9513 118° Southeast  Level FlightAware Approximate
Sun 07:04:15 AM 46.0868 23.1301 118° Southeast  Level FlightAware Approximate
Sun 07:05:15 AM 46.0211 23.3085 118° Southeast  Level FlightAware Approximate
Sun 07:06:15 AM 45.9551 23.4865 118° Southeast  Level FlightAware Approximate
Sun 07:07:15 AM 45.8888 23.6640 118° Southeast  Level FlightAware Approximate
Sun 07:08:15 AM 45.8223 23.8411 118° Southeast  Level FlightAware Approximate
Sun 07:09:15 AM 45.7555 24.0178 119° Southeast  Level FlightAware Approximate
Sun 07:10:15 AM 45.6884 24.1941 119° Southeast  Level FlightAware Approximate
Sun 07:11:15 AM 45.6211 24.3699 119° Southeast  Level FlightAware Approximate
Sun 07:12:15 AM 45.5535 24.5454 119° Southeast  Level FlightAware Approximate
Sun 07:13:15 AM 45.4856 24.7204 119° Southeast  Level FlightAware Approximate
Sun 07:14:15 AM 45.4174 24.8950 119° Southeast  Level FlightAware Approximate
Sun 07:15:15 AM 45.3490 25.0691 119° Southeast  Level FlightAware Approximate
Sun 07:16:15 AM 45.2803 25.2428 122° Southeast  Level FlightAware Approximate
Sun 07:17:15 AM 45.2059 25.4110 120° Southeast  Level FlightAware Approximate
Sun 07:18:15 AM 45.1366 25.5838 120° Southeast  Level FlightAware Approximate
Sun 07:19:15 AM 45.0671 25.7562 120° Southeast  Level FlightAware Approximate
Sun 07:20:15 AM 44.9973 25.9282 120° Southeast  Level FlightAware Approximate
Sun 07:21:15 AM 44.9273 26.0998 120° Southeast  Level FlightAware Approximate
Sun 07:22:15 AM 44.8570 26.2710 120° Southeast  Level FlightAware Approximate
Sun 07:23:15 AM 44.7864 26.4417 120° Southeast  Level FlightAware Approximate
Sun 07:24:15 AM 44.7156 26.6120 120° Southeast  Level FlightAware Approximate
Sun 07:25:15 AM 44.6446 26.7819 121° Southeast  Level FlightAware Approximate
Sun 07:26:15 AM 44.5732 26.9514 121° Southeast  Level FlightAware Approximate
Sun 07:27:15 AM 44.5017 27.1204 121° Southeast  Level FlightAware Approximate
Sun 07:28:15 AM 44.4299 27.2891 121° Southeast  Level FlightAware Approximate
Sun 07:29:15 AM 44.3578 27.4573 121° Southeast  Level FlightAware Approximate
Sun 07:30:15 AM 44.2855 27.6252 121° Southeast  Level FlightAware Approximate
Sun 07:31:15 AM 44.2130 27.7926 121° Southeast  Level FlightAware Approximate
Sun 07:32:15 AM 44.1402 27.9596 121° Southeast  Level FlightAware Approximate
Sun 07:33:15 AM 44.0671 28.1262 121° Southeast  Level FlightAware Approximate
Sun 07:34:15 AM 43.9939 28.2923 122° Southeast  Level FlightAware Approximate
Sun 07:35:15 AM 43.9203 28.4581 122° Southeast  Level FlightAware Approximate
Sun 07:36:15 AM 43.8466 28.6234 122° Southeast  Level FlightAware Approximate
Sun 07:37:15 AM 43.7726 28.7884 122° Southeast  Level FlightAware Approximate
Sun 07:38:15 AM 43.6984 28.9529 122° Southeast  Level FlightAware Approximate
Sun 07:39:15 AM 43.6239 29.1171 122° Southeast  Level FlightAware Approximate
Sun 07:40:15 AM 43.5492 29.2808 122° Southeast  Level FlightAware Approximate
Sun 07:41:15 AM 43.4743 29.4441 122° Southeast  Level FlightAware Approximate
Sun 07:42:15 AM 43.3991 29.6070 122° Southeast  Level FlightAware Approximate
Sun 07:43:15 AM 43.3237 29.7695 123° Southeast  Level FlightAware Approximate
Sun 07:44:15 AM 43.2481 29.9316 123° Southeast  Level FlightAware Approximate
Sun 07:45:15 AM 43.1723 30.0933 123° Southeast  Level FlightAware Approximate
Sun 07:46:15 AM 43.0962 30.2546 123° Southeast  Level FlightAware Approximate
Sun 07:47:15 AM 43.0199 30.4155 123° Southeast  Level FlightAware Approximate
Sun 07:48:15 AM 42.9433 30.5760 123° Southeast  Level FlightAware Approximate
Sun 07:49:15 AM 42.8666 30.7361 123° Southeast  Level FlightAware Approximate
Sun 07:50:15 AM 42.7896 30.8958 123° Southeast  Level FlightAware Approximate
Sun 07:51:15 AM 42.7124 31.0551 123° Southeast  Level FlightAware Approximate
Sun 07:52:15 AM 42.6350 31.2140 124° Southeast  Level FlightAware Approximate
Sun 07:53:15 AM 42.5574 31.3725 124° Southeast  Level FlightAware Approximate
Sun 07:54:15 AM 42.4795 31.5307 124° Southeast  Level FlightAware Approximate
Sun 07:55:15 AM 42.4014 31.6884 124° Southeast  Level FlightAware Approximate
Sun 07:56:15 AM 42.3231 31.8457 124° Southeast  Level FlightAware Approximate
Sun 07:57:15 AM 42.2446 32.0027 124° Southeast  Level FlightAware Approximate
Sun 07:58:15 AM 42.1659 32.1592 124° Southeast  Level FlightAware Approximate
Sun 07:59:15 AM 42.0870 32.3154 124° Southeast  Level FlightAware Approximate
Sun 08:00:15 AM 42.0079 32.4711 124° Southeast  Level FlightAware Approximate
Sun 08:01:15 AM 41.9285 32.6265 125° Southeast  Level FlightAware Approximate
Sun 08:02:15 AM 41.8489 32.7815 125° Southeast  Level FlightAware Approximate
Sun 08:03:15 AM 41.7692 32.9361 125° Southeast  Level FlightAware Approximate
Sun 08:04:15 AM 41.6892 33.0904 125° Southeast  Level FlightAware Approximate
Sun 08:05:15 AM 41.6090 33.2442 125° Southeast  Level FlightAware Approximate
Sun 08:06:15 AM 41.5286 33.3977 125° Southeast  Level FlightAware Approximate
Sun 08:07:15 AM 41.4481 33.5507 125° Southeast  Level FlightAware Approximate
Sun 08:08:15 AM 41.3673 33.7034 125° Southeast  Level FlightAware Approximate
Sun 08:09:15 AM 41.2863 33.8558 125° Southeast  Level FlightAware Approximate
Sun 08:10:15 AM 41.2051 34.0077 125° Southeast  Level FlightAware Approximate
Sun 08:11:15 AM 41.1237 34.1593 126° Southeast  Level FlightAware Approximate
Sun 08:12:15 AM 41.0421 34.3105 126° Southeast  Level FlightAware Approximate
Sun 08:13:15 AM 40.9603 34.4613 126° Southeast  Level FlightAware Approximate
Sun 08:14:15 AM 40.8783 34.6117 126° Southeast  Level FlightAware Approximate
Sun 08:15:15 AM 40.7962 34.7618 126° Southeast  Level FlightAware Approximate
Sun 08:16:15 AM 40.7138 34.9115 126° Southeast  Level FlightAware Approximate
Sun 08:17:15 AM 40.6312 35.0608 126° Southeast  Level FlightAware Approximate
Sun 08:18:15 AM 40.5485 35.2098 126° Southeast  Level FlightAware Approximate
Sun 08:19:15 AM 40.4655 35.3584 126° Southeast  Level FlightAware Approximate
Sun 08:20:15 AM 40.3824 35.5066 126° Southeast  Level FlightAware Approximate
Sun 08:21:15 AM 40.2991 35.6544 127° Southeast  Level FlightAware Approximate
Sun 08:22:15 AM 40.2156 35.8019 127° Southeast  Level FlightAware Approximate
Sun 08:23:15 AM 40.1319 35.9491 127° Southeast  Level FlightAware Approximate
Sun 08:24:15 AM 40.0480 36.0958 127° Southeast  Level FlightAware Approximate
Sun 08:25:15 AM 39.9639 36.2422 122° Southeast  Level FlightAware Approximate
Sun 08:26:15 AM 39.8895 36.3967 127° Southeast  Level FlightAware Approximate
Sun 08:27:15 AM 39.8051 36.5424 127° Southeast  Level FlightAware Approximate
Sun 08:28:15 AM 39.7205 36.6879 127° Southeast  Level FlightAware Approximate
Sun 08:29:15 AM 39.6358 36.8329 127° Southeast  Level FlightAware Approximate
Sun 08:30:15 AM 39.5509 36.9776 127° Southeast  Level FlightAware Approximate
Sun 08:31:15 AM 39.4658 37.1220 127° Southeast  Level FlightAware Approximate
Sun 08:32:15 AM 39.3805 37.2659 128° Southeast  Level FlightAware Approximate
Sun 08:33:15 AM 39.2951 37.4096 128° Southeast  Level FlightAware Approximate
Sun 08:34:15 AM 39.2095 37.5529 128° Southeast  Level FlightAware Approximate
Sun 08:35:15 AM 39.1237 37.6958 128° Southeast  Level FlightAware Approximate
Sun 08:36:15 AM 39.0377 37.8384 128° Southeast  Level FlightAware Approximate
Sun 08:37:15 AM 38.9515 37.9807 128° Southeast  Level FlightAware Approximate
Sun 08:38:15 AM 38.8652 38.1226 128° Southeast  Level FlightAware Approximate
Sun 08:39:15 AM 38.7787 38.2641 128° Southeast  Level FlightAware Approximate
Sun 08:40:15 AM 38.6921 38.4053 128° Southeast  Level FlightAware Approximate
Sun 08:41:15 AM 38.6053 38.5462 128° Southeast  Level FlightAware Approximate
Sun 08:42:15 AM 38.5182 38.6867 128° Southeast  Level FlightAware Approximate
Sun 08:43:15 AM 38.4311 38.8269 128° Southeast  Level FlightAware Approximate
Sun 08:44:15 AM 38.3438 38.9668 129° Southeast  Level FlightAware Approximate
Sun 08:45:15 AM 38.2562 39.1063 129° Southeast  Level FlightAware Approximate
Sun 08:46:15 AM 38.1686 39.2454 134° Southeast  Level FlightAware Approximate
Sun 08:47:15 AM 38.0720 39.3730 129° Southeast  Level FlightAware Approximate
Sun 08:48:15 AM 37.9841 39.5116 129° Southeast  Level FlightAware Approximate
Sun 08:49:15 AM 37.8960 39.6499 129° Southeast  Level FlightAware Approximate
Sun 08:50:15 AM 37.8078 39.7878 129° Southeast  Level FlightAware Approximate
Sun 08:51:15 AM 37.7194 39.9254 129° Southeast  Level FlightAware Approximate
Sun 08:52:15 AM 37.6309 40.0627 129° Southeast  Level FlightAware Approximate
Sun 08:53:15 AM 37.5422 40.1996 124° Southeast  Level FlightAware Approximate
Sun 08:54:15 AM 37.4651 40.3457 129° Southeast  Level FlightAware Approximate
Sun 08:55:15 AM 37.3759 40.4818 130° Southeast  Level FlightAware Approximate
Sun 08:56:15 AM 37.2866 40.6177 130° Southeast  Level FlightAware Approximate
Sun 08:57:15 AM 37.1971 40.7532 130° Southeast  Level FlightAware Approximate
Sun 08:58:15 AM 37.1075 40.8884 130° Southeast  Level FlightAware Approximate
Sun 08:59:15 AM 37.0177 41.0232 130° Southeast  Level FlightAware Approximate
Sun 09:00:15 AM 36.9278 41.1578 130° Southeast  Level FlightAware Approximate
Sun 09:01:15 AM 36.8377 41.2920 130° Southeast  Level FlightAware Approximate
Sun 09:02:15 AM 36.7475 41.4259 130° Southeast  Level FlightAware Approximate
Sun 09:03:15 AM 36.6571 41.5595 130° Southeast  Level FlightAware Approximate
Sun 09:04:15 AM 36.5665 41.6928 130° Southeast  Level FlightAware Approximate
Sun 09:05:15 AM 36.4758 41.8258 130° Southeast  Level FlightAware Approximate
Sun 09:06:15 AM 36.3850 41.9584 130° Southeast  Level FlightAware Approximate
Sun 09:07:15 AM 36.2940 42.0908 131° Southeast  Level FlightAware Approximate
Sun 09:08:15 AM 36.2029 42.2228 131° Southeast  Level FlightAware Approximate
Sun 09:09:15 AM 36.1116 42.3545 131° Southeast  Level FlightAware Approximate
Sun 09:10:15 AM 36.0202 42.4860 131° Southeast  Level FlightAware Approximate
Sun 09:11:15 AM 35.9286 42.6171 131° Southeast  Level FlightAware Approximate
Sun 09:12:15 AM 35.8369 42.7479 131° Southeast  Level FlightAware Approximate
Sun 09:13:15 AM 35.7451 42.8784 131° Southeast  Level FlightAware Approximate
Sun 09:14:15 AM 35.6531 43.0087 131° Southeast  Level FlightAware Approximate
Sun 09:15:15 AM 35.5610 43.1386 131° Southeast  Level FlightAware Approximate
Sun 09:16:15 AM 35.4688 43.2682 131° Southeast  Level FlightAware Approximate
Sun 09:17:15 AM 35.3764 43.3975 131° Southeast  Level FlightAware Approximate
Sun 09:18:15 AM 35.2838 43.5265 131° Southeast  Level FlightAware Approximate
Sun 09:19:15 AM 35.1911 43.6553 131° Southeast  Level FlightAware Approximate
Sun 09:20:15 AM 35.0983 43.7837 132° Southeast  Level FlightAware Approximate
Sun 09:21:15 AM 35.0054 43.9118 132° Southeast  Level FlightAware Approximate
Sun 09:22:15 AM 34.9123 44.0397 132° Southeast  Level FlightAware Approximate
Sun 09:23:15 AM 34.8191 44.1673 132° Southeast  Level FlightAware Approximate
Sun 09:24:15 AM 34.7257 44.2945 132° Southeast  Level FlightAware Approximate
Sun 09:25:15 AM 34.6323 44.4215 132° Southeast  Level FlightAware Approximate
Sun 09:26:15 AM 34.5387 44.5482 132° Southeast  Level FlightAware Approximate
Sun 09:27:15 AM 34.4449 44.6746 132° Southeast  Level FlightAware Approximate
Sun 09:28:15 AM 34.3511 44.8008 132° Southeast  Level FlightAware Approximate
Sun 09:29:15 AM 34.2570 44.9266 132° Southeast  Level FlightAware Approximate
Sun 09:30:15 AM 34.1629 45.0522 132° Southeast  Level FlightAware Approximate
Sun 09:31:15 AM 34.0687 45.1775 132° Southeast  Level FlightAware Approximate
Sun 09:32:15 AM 33.9743 45.3025 132° Southeast  Level FlightAware Approximate
Sun 09:33:15 AM 33.8798 45.4272 132° Southeast  Level FlightAware Approximate
Sun 09:34:15 AM 33.7851 45.5517 133° Southeast  Level FlightAware Approximate
Sun 09:35:15 AM 33.6904 45.6759 133° Southeast  Level FlightAware Approximate
Sun 09:36:15 AM 33.5955 45.7998 133° Southeast  Level FlightAware Approximate
Sun 09:37:15 AM 33.5005 45.9234 133° Southeast  Level FlightAware Approximate
Sun 09:38:15 AM 33.4054 46.0468 133° Southeast  Level FlightAware Approximate
Sun 09:39:15 AM 33.3101 46.1699 133° Southeast  Level FlightAware Approximate
Sun 09:40:15 AM 33.2147 46.2927 133° Southeast  Level FlightAware Approximate
Sun 09:41:15 AM 33.1193 46.4152 133° Southeast  Level FlightAware Approximate
Sun 09:42:15 AM 33.0237 46.5375 133° Southeast  Level FlightAware Approximate
Sun 09:43:15 AM 32.9279 46.6596 133° Southeast  Level FlightAware Approximate
Sun 09:44:15 AM 32.8321 46.7813 133° Southeast  Level FlightAware Approximate
Sun 09:45:15 AM 32.7361 46.9028 133° Southeast  Level FlightAware Approximate
Sun 09:46:15 AM 32.6400 47.0241 133° Southeast  Level FlightAware Approximate
Sun 09:47:15 AM 32.5438 47.1451 133° Southeast  Level FlightAware Approximate
Sun 09:48:15 AM 32.4475 47.2658 133° Southeast  Level FlightAware Approximate
Sun 09:49:15 AM 32.3511 47.3862 134° Southeast  Level FlightAware Approximate
Sun 09:50:15 AM 32.2545 47.5064 134° Southeast  Level FlightAware Approximate
Sun 09:51:15 AM 32.1579 47.6264 134° Southeast  Level FlightAware Approximate
Sun 09:52:15 AM 32.0611 47.7461 134° Southeast  Level FlightAware Approximate
Sun 09:53:15 AM 31.9642 47.8655 134° Southeast  Level FlightAware Approximate
Sun 09:54:15 AM 31.8672 47.9847 134° Southeast  Level FlightAware Approximate
Sun 09:55:15 AM 31.7701 48.1036 134° Southeast  Level FlightAware Approximate
Sun 09:56:15 AM 31.6729 48.2223 134° Southeast  Level FlightAware Approximate
Sun 09:57:15 AM 31.5756 48.3408 134° Southeast  Level FlightAware Approximate
Sun 09:58:15 AM 31.4782 48.4590 134° Southeast  Level FlightAware Approximate
Sun 09:59:15 AM 31.3806 48.5769 134° Southeast  Level FlightAware Approximate
Sun 10:00:15 AM 31.2830 48.6946 134° Southeast  Level FlightAware Approximate
Sun 10:01:15 AM 31.1852 48.8121 134° Southeast  Level FlightAware Approximate
Sun 10:02:15 AM 31.0874 48.9293 134° Southeast  Level FlightAware Approximate
Sun 10:03:15 AM 30.9894 49.0463 134° Southeast  Level FlightAware Approximate
Sun 10:04:15 AM 30.8913 49.1630 134° Southeast  Level FlightAware Approximate
Sun 10:05:15 AM 30.7931 49.2795 134° Southeast  Level FlightAware Approximate
Sun 10:06:15 AM 30.6949 49.3957 135° Southeast  Level FlightAware Approximate
Sun 10:07:15 AM 30.5965 49.5118 135° Southeast  Level FlightAware Approximate
Sun 10:08:15 AM 30.4980 49.6276 135° Southeast  Level FlightAware Approximate
Sun 10:09:15 AM 30.3994 49.7431 135° Southeast  Level FlightAware Approximate
Sun 10:10:15 AM 30.3007 49.8584 135° Southeast  Level FlightAware Approximate
Sun 10:11:15 AM 30.2019 49.9735 135° Southeast  Level FlightAware Approximate
Sun 10:12:15 AM 30.1030 50.0884 135° Southeast  Level FlightAware Approximate
Sun 10:13:15 AM 30.0040 50.2030 135° Southeast  Level FlightAware Approximate
Sun 10:14:15 AM 29.9049 50.3174 135° Southeast  Level FlightAware Approximate
Sun 10:15:15 AM 29.8057 50.4316 135° Southeast  Level FlightAware Approximate
Sun 10:16:15 AM 29.7065 50.5455 135° Southeast  Level FlightAware Approximate
Sun 10:17:15 AM 29.6071 50.6592 135° Southeast  Level FlightAware Approximate
Sun 10:18:15 AM 29.5076 50.7727 135° Southeast  Level FlightAware Approximate
Sun 10:19:15 AM 29.4080 50.8860 135° Southeast  Level FlightAware Approximate
Sun 10:20:15 AM 29.3083 50.9990 135° Southeast  Level FlightAware Approximate
Sun 10:21:15 AM 29.2086 51.1119 135° Southeast  Level FlightAware Approximate
Sun 10:22:15 AM 29.1091 51.2241 135° Southeast  Level FlightAware Approximate
Sun 10:23:15 AM 29.0095 51.3361 136° Southeast  Level FlightAware Approximate
Sun 10:24:15 AM 28.9098 51.4478 136° Southeast  Level FlightAware Approximate
Sun 10:25:15 AM 28.8100 51.5594 136° Southeast  Level FlightAware Approximate
Sun 10:26:15 AM 28.7101 51.6708 136° Southeast  Level FlightAware Approximate
Sun 10:27:15 AM 28.6101 51.7819 136° Southeast  Level FlightAware Approximate
Sun 10:28:15 AM 28.5101 51.8928 136° Southeast  Level FlightAware Approximate
Sun 10:29:15 AM 28.4099 52.0035 136° Southeast  Level FlightAware Approximate
Sun 10:30:15 AM 28.3097 52.1140 136° Southeast  Level FlightAware Approximate
Sun 10:31:15 AM 28.2094 52.2243 136° Southeast  Level FlightAware Approximate
Sun 10:32:15 AM 28.1089 52.3344 136° Southeast  Level FlightAware Approximate
Sun 10:33:15 AM 28.0084 52.4443 136° Southeast  Level FlightAware Approximate
Sun 10:34:15 AM 27.9078 52.5540 136° Southeast  Level FlightAware Approximate
Sun 10:35:15 AM 27.8072 52.6635 136° Southeast  Level FlightAware Approximate
Sun 10:36:15 AM 27.7064 52.7727 136° Southeast  Level FlightAware Approximate
Sun 10:37:15 AM 27.6056 52.8818 136° Southeast  Level FlightAware Approximate
Sun 10:38:15 AM 27.5046 52.9907 136° Southeast  Level FlightAware Approximate
Sun 10:39:15 AM 27.4036 53.0993 136° Southeast  Level FlightAware Approximate
Sun 10:40:15 AM 27.3025 53.2078 136° Southeast  Level FlightAware Approximate
Sun 10:41:15 AM 27.2013 53.3161 136° Southeast  Level FlightAware Approximate
Sun 10:42:15 AM 27.1000 53.4242 137° Southeast  Level FlightAware Approximate
Sun 10:43:15 AM 26.9987 53.5320 137° Southeast  Level FlightAware Approximate
Sun 10:44:15 AM 26.8973 53.6397 138° Southeast  Level FlightAware Approximate
Sun 10:45:15 AM 26.7943 53.7423 135° Southeast  Level FlightAware Approximate
Sun 10:46:15 AM 26.6963 53.8537 138° Southeast  Level FlightAware Approximate
Sun 10:47:15 AM 26.5922 53.9578 135° Southeast  Level FlightAware Approximate
Sun 10:48:15 AM 26.4930 54.0676 136° Southeast  Level FlightAware Approximate
Sun 10:49:15 AM 26.3918 54.1750 137° Southeast  Level FlightAware Approximate
Sun 10:50:15 AM 26.2895 54.2810 135° Southeast  Level FlightAware Approximate
Sun 10:51:15 AM 26.1915 54.3919 137° Southeast  Level FlightAware Approximate
Sun 10:52:15 AM 26.0889 54.4974 139° Southeast  Level FlightAware Approximate
Sun 10:53:15 AM 25.9840 54.5995 137° Southeast  Level FlightAware Approximate
Sun 10:54:15 AM 25.8816 54.7051 137° Southeast  Level FlightAware Approximate
Sun 10:55:15 AM 25.7799 54.8111 135° Southeast  Level FlightAware Approximate
Sun 10:56:15 AM 25.6803 54.9197 138° Southeast  Level FlightAware Approximate
Sun 10:57:15 AM 25.5767 55.0236 138° Southeast  Level FlightAware Approximate
Sun 10:58:15 AM 25.4729 55.1271 138° Southeast  Level FlightAware Approximate
Sun 10:59:15 AM 25.3692 55.2308 138° Southeast  Level FlightAware Approximate
Sun 11:00:15 AM 25.2656 55.3344 111° Southeast  Level FlightAware Approximate
Sun 11:01:15 AM 25.2144 55.4780 111° Southeast  Level Estimated

Login

Don't have an account? Register now (free) for customized features, flight alerts, and more!